CDT,Max TemperatureF,Mean TemperatureF,Min TemperatureF,Max Dew PointF,MeanDew PointF,Min DewpointF,Max Humidity, Mean Humidity, Min Humidity, Max Sea Level PressureIn, Mean Sea Level PressureIn, Min Sea Level PressureIn, Max VisibilityMiles, Mean VisibilityMiles, Min VisibilityMiles, Max Wind SpeedMPH, Mean Wind SpeedMPH, Max Gust SpeedMPH,PrecipitationIn, CloudCover, Events, WindDirDegrees
2012-10-1,75,66,56,57,53,47,100,69,38,29.86,29.82,29.78,10,10,9,21,5,25,0.00,0,,354
2012-10-2,73,61,49,52,49,46,93,66,38,29.95,29.91,29.85,10,10,10,15,4,20,0.00,0,,321
2012-10-3,77,62,47,53,49,43,100,66,31,30.00,29.97,29.93,10,10,10,21,6,25,0.00,0,,179
2012-10-4,79,66,53,59,53,45,86,70,53,30.18,30.12,30.01,10,10,10,20,10,25,0.00,3,,221
2012-10-5,52,44,36,46,43,35,100,83,66,30.30,30.21,30.17,10,9,2,17,9,23,0.07,7,Rain-Thunderstorm,22
2012-10-6,48,41,33,38,35,31,100,79,58,30.35,30.31,30.27,10,10,10,15,4,25,0.00,6,,6
2012-10-7,54,41,28,34,30,26,92,65,38,30.35,30.28,30.21,10,10,10,13,3,17,0.00,0,,210
2012-10-8,61,47,32,38,35,32,100,68,36,30.23,30.15,30.05,10,10,7,17,8,23,0.00,0,,198
2012-10-9,67,55,42,55,49,38,100,78,55,30.11,30.01,29.91,10,7,0,20,9,24,0.00,5,Fog,201
2012-10-10,64,50,36,48,35,30,92,61,30,30.31,30.22,30.12,10,10,10,16,5,22,0.00,1,,56
2012-10-11,71,61,51,63,52,37,87,72,57,30.16,30.11,30.04,10,10,7,16,8,21,T,8,Rain,170
2012-10-12,71,66,60,64,62,59,100,91,81,30.23,30.15,30.08,10,7,0,20,6,28,2.32,7,Fog-Rain-Thunderstorm,85
2012-10-13,76,68,60,66,63,59,100,85,69,30.08,29.85,29.70,10,7,1,30,15,39,1.38,5,Rain-Thunderstorm,180
2012-10-14,71,61,51,63,53,45,93,68,42,30.05,29.84,29.65,10,10,10,23,12,30,0.00,2,,244
2012-10-15,78,63,48,52,48,44,86,61,35,30.05,29.97,29.87,10,10,10,16,8,23,0.00,0,,201
2012-10-16,78,69,60,49,46,43,64,48,31,29.86,29.73,29.59,10,10,10,28,15,36,0.00,0,,192
2012-10-17,70,60,50,64,54,36,100,71,42,29.73,29.55,29.47,10,9,0,25,12,32,0.79,5,Fog-Rain-Thunderstorm,245
2012-10-18,63,53,43,35,30,26,65,45,25,29.83,29.77,29.74,10,10,10,29,14,37,0.00,2,,270
2012-10-19,59,51,42,41,38,34,89,66,43,29.87,29.81,29.73,10,10,10,22,9,28,0.00,4,,283
2012-10-20,77,59,41,51,43,36,89,61,33,29.87,29.81,29.74,10,10,10,15,8,20,0.00,0,,165
2012-10-21,78,70,62,67,60,49,79,68,56,29.83,29.80,29.77,10,10,10,22,14,29,0.00,4,,169
2012-10-22,79,74,68,66,65,64,90,79,67,29.91,29.87,29.80,10,10,10,32,17,40,T,3,Rain-Thunderstorm,186
2012-10-23,76,72,68,66,64,63,90,84,78,29.90,29.86,29.80,10,10,9,26,18,33,0.00,6,Thunderstorm,181
2012-10-24,82,75,68,65,62,59,78,67,56,29.92,29.84,29.74,10,10,10,26,18,33,0.00,1,,182
2012-10-25,72,58,43,63,49,36,100,82,70,30.24,29.95,29.71,10,9,3,28,16,38,0.07,6,Rain,312
2012-10-26,48,40,31,34,30,28,85,67,48,30.42,30.36,30.25,10,10,10,20,11,28,0.00,4,,14
2012-10-27,49,39,28,31,28,26,92,71,46,30.41,30.33,30.25,10,10,10,12,5,16,0.00,0,,18
2012-10-28,53,39,25,32,28,23,100,74,40,30.36,30.30,30.26,10,9,2,9,3,21,0.00,0,,39
2012-10-29,59,46,32,32,30,28,85,58,33,30.35,30.24,30.13,10,10,10,12,5,,0.00,2,,125
2012-10-30,63,50,36,38,34,29,79,56,37,30.11,30.02,29.94,10,10,10,9,4,23,0.00,2,,115
2012-10-31,63,49,35,38,34,30,86,61,34,30.09,30.04,29.99,10,10,10,8,3,17,0.00,0,,6